sensor_id;sensor_type;location;lat;lon;timestamp;P1;durP1;ratioP1;P2;durP2;ratioP2
77984;SDS011;67177;47.240;-1.546;2023-07-16T00:01:29;8.47;;;4.10;;
77984;SDS011;67177;47.240;-1.546;2023-07-16T00:03:54;8.95;;;4.05;;
77984;SDS011;67177;47.240;-1.546;2023-07-16T00:06:20;7.87;;;3.70;;
77984;SDS011;67177;47.240;-1.546;2023-07-16T00:08:46;8.75;;;3.90;;
77984;SDS011;67177;47.240;-1.546;2023-07-16T00:11:11;8.80;;;3.60;;
77984;SDS011;67177;47.240;-1.546;2023-07-16T00:13:37;9.50;;;3.90;;
77984;SDS011;67177;47.240;-1.546;2023-07-16T00:16:03;7.60;;;3.43;;
77984;SDS011;67177;47.240;-1.546;2023-07-16T00:18:29;7.38;;;3.28;;
77984;SDS011;67177;47.240;-1.546;2023-07-16T00:20:54;8.03;;;3.27;;
77984;SDS011;67177;47.240;-1.546;2023-07-16T00:23:20;8.40;;;3.63;;
77984;SDS011;67177;47.240;-1.546;2023-07-16T00:25:46;6.55;;;3.25;;
77984;SDS011;67177;47.240;-1.546;2023-07-16T00:28:11;5.90;;;2.40;;
77984;SDS011;67177;47.240;-1.546;2023-07-16T00:30:37;6.78;;;2.72;;
77984;SDS011;67177;47.240;-1.546;2023-07-16T00:33:03;6.80;;;3.00;;
77984;SDS011;67177;47.240;-1.546;2023-07-16T00:35:28;7.95;;;2.55;;
77984;SDS011;67177;47.240;-1.546;2023-07-16T00:37:54;6.93;;;2.33;;
77984;SDS011;67177;47.240;-1.546;2023-07-16T00:40:20;6.75;;;2.70;;
77984;SDS011;67177;47.240;-1.546;2023-07-16T00:42:45;8.87;;;2.57;;
77984;SDS011;67177;47.240;-1.546;2023-07-16T00:45:12;7.07;;;2.45;;
77984;SDS011;67177;47.240;-1.546;2023-07-16T00:47:41;6.00;;;2.60;;
77984;SDS011;67177;47.240;-1.546;2023-07-16T00:50:08;8.48;;;2.63;;
77984;SDS011;67177;47.240;-1.546;2023-07-16T00:52:35;7.03;;;2.78;;
77984;SDS011;67177;47.240;-1.546;2023-07-16T00:55:01;6.72;;;2.45;;
77984;SDS011;67177;47.240;-1.546;2023-07-16T00:57:27;5.78;;;2.53;;
77984;SDS011;67177;47.240;-1.546;2023-07-16T00:59:53;7.57;;;2.60;;
77984;SDS011;67177;47.240;-1.546;2023-07-16T01:02:19;7.05;;;2.30;;
77984;SDS011;67177;47.240;-1.546;2023-07-16T01:04:44;6.80;;;2.30;;
77984;SDS011;67177;47.240;-1.546;2023-07-16T01:07:11;7.47;;;2.35;;
77984;SDS011;67177;47.240;-1.546;2023-07-16T01:09:40;6.10;;;2.30;;
77984;SDS011;67177;47.240;-1.546;2023-07-16T01:12:07;5.68;;;1.98;;
77984;SDS011;67177;47.240;-1.546;2023-07-16T01:14:33;5.25;;;1.85;;
77984;SDS011;67177;47.240;-1.546;2023-07-16T01:17:04;6.93;;;1.95;;
77984;SDS011;67177;47.240;-1.546;2023-07-16T01:19:31;6.18;;;1.92;;
77984;SDS011;67177;47.240;-1.546;2023-07-16T01:30:01;6.38;;;1.80;;
77984;SDS011;67177;47.240;-1.546;2023-07-16T01:32:29;6.65;;;1.95;;
77984;SDS011;67177;47.240;-1.546;2023-07-16T01:34:55;7.10;;;1.90;;
77984;SDS011;67177;47.240;-1.546;2023-07-16T01:37:22;5.75;;;1.70;;
77984;SDS011;67177;47.240;-1.546;2023-07-16T01:39:49;5.20;;;1.30;;
77984;SDS011;67177;47.240;-1.546;2023-07-16T01:42:15;5.30;;;1.50;;
77984;SDS011;67177;47.240;-1.546;2023-07-16T01:44:40;5.97;;;1.37;;
77984;SDS011;67177;47.240;-1.546;2023-07-16T01:49:37;6.70;;;1.48;;
77984;SDS011;67177;47.240;-1.546;2023-07-16T01:52:04;4.93;;;1.40;;
77984;SDS011;67177;47.240;-1.546;2023-07-16T01:54:31;4.23;;;1.10;;
77984;SDS011;67177;47.240;-1.546;2023-07-16T01:56:57;4.28;;;1.10;;
77984;SDS011;67177;47.240;-1.546;2023-07-16T01:59:23;4.55;;;1.13;;
77984;SDS011;67177;47.240;-1.546;2023-07-16T02:01:48;5.63;;;1.37;;
77984;SDS011;67177;47.240;-1.546;2023-07-16T02:04:14;5.00;;;1.40;;
77984;SDS011;67177;47.240;-1.546;2023-07-16T02:06:40;5.15;;;1.30;;
77984;SDS011;67177;47.240;-1.546;2023-07-16T02:09:05;6.03;;;1.50;;
77984;SDS011;67177;47.240;-1.546;2023-07-16T02:11:31;4.75;;;1.10;;
77984;SDS011;67177;47.240;-1.546;2023-07-16T02:13:56;4.40;;;1.00;;
77984;SDS011;67177;47.240;-1.546;2023-07-16T02:16:22;4.47;;;0.90;;
77984;SDS011;67177;47.240;-1.546;2023-07-16T02:18:48;5.32;;;1.08;;
77984;SDS011;67177;47.240;-1.546;2023-07-16T02:21:13;5.07;;;1.30;;
77984;SDS011;67177;47.240;-1.546;2023-07-16T02:23:39;4.82;;;1.10;;
77984;SDS011;67177;47.240;-1.546;2023-07-16T02:26:05;4.90;;;1.10;;
77984;SDS011;67177;47.240;-1.546;2023-07-16T02:28:30;4.43;;;0.90;;
77984;SDS011;67177;47.240;-1.546;2023-07-16T02:30:56;3.20;;;0.70;;
77984;SDS011;67177;47.240;-1.546;2023-07-16T02:33:23;3.75;;;0.90;;
77984;SDS011;67177;47.240;-1.546;2023-07-16T02:35:49;4.10;;;0.90;;
77984;SDS011;67177;47.240;-1.546;2023-07-16T02:38:16;5.18;;;1.00;;
77984;SDS011;67177;47.240;-1.546;2023-07-16T02:40:45;4.30;;;1.20;;
77984;SDS011;67177;47.240;-1.546;2023-07-16T02:43:12;6.10;;;1.40;;
77984;SDS011;67177;47.240;-1.546;2023-07-16T02:45:38;4.90;;;1.50;;
77984;SDS011;67177;47.240;-1.546;2023-07-16T02:48:04;6.22;;;1.40;;
77984;SDS011;67177;47.240;-1.546;2023-07-16T02:50:37;5.90;;;1.47;;
77984;SDS011;67177;47.240;-1.546;2023-07-16T02:53:03;4.93;;;1.23;;
77984;SDS011;67177;47.240;-1.546;2023-07-16T02:55:30;4.95;;;1.60;;
77984;SDS011;67177;47.240;-1.546;2023-07-16T02:57:56;6.07;;;1.60;;
77984;SDS011;67177;47.240;-1.546;2023-07-16T03:00:22;5.07;;;1.38;;
77984;SDS011;67177;47.240;-1.546;2023-07-16T03:02:47;6.18;;;1.60;;
77984;SDS011;67177;47.240;-1.546;2023-07-16T03:05:15;4.50;;;1.17;;
77984;SDS011;67177;47.240;-1.546;2023-07-16T03:07:41;5.40;;;1.53;;
77984;SDS011;67177;47.240;-1.546;2023-07-16T03:10:07;5.50;;;1.50;;
77984;SDS011;67177;47.240;-1.546;2023-07-16T03:12:33;4.88;;;1.55;;
77984;SDS011;67177;47.240;-1.546;2023-07-16T03:14:59;5.07;;;1.58;;
77984;SDS011;67177;47.240;-1.546;2023-07-16T03:17:25;5.47;;;1.50;;
77984;SDS011;67177;47.240;-1.546;2023-07-16T03:19:50;5.27;;;1.60;;
77984;SDS011;67177;47.240;-1.546;2023-07-16T03:22:16;6.70;;;1.65;;
77984;SDS011;67177;47.240;-1.546;2023-07-16T03:24:41;5.80;;;1.80;;
77984;SDS011;67177;47.240;-1.546;2023-07-16T03:27:07;6.57;;;1.85;;
77984;SDS011;67177;47.240;-1.546;2023-07-16T03:29:33;6.40;;;1.70;;
77984;SDS011;67177;47.240;-1.546;2023-07-16T03:31:59;5.32;;;1.52;;
77984;SDS011;67177;47.240;-1.546;2023-07-16T03:34:25;5.25;;;1.60;;
77984;SDS011;67177;47.240;-1.546;2023-07-16T03:36:50;6.38;;;1.70;;
77984;SDS011;67177;47.240;-1.546;2023-07-16T03:39:16;4.97;;;1.65;;
77984;SDS011;67177;47.240;-1.546;2023-07-16T03:41:42;5.40;;;1.50;;
77984;SDS011;67177;47.240;-1.546;2023-07-16T03:44:08;5.50;;;1.63;;
77984;SDS011;67177;47.240;-1.546;2023-07-16T03:46:33;5.93;;;1.40;;
77984;SDS011;67177;47.240;-1.546;2023-07-16T03:48:59;5.83;;;1.70;;
77984;SDS011;67177;47.240;-1.546;2023-07-16T03:51:25;5.43;;;1.63;;
77984;SDS011;67177;47.240;-1.546;2023-07-16T03:53:51;6.10;;;1.73;;
77984;SDS011;67177;47.240;-1.546;2023-07-16T03:56:16;5.13;;;1.30;;
77984;SDS011;67177;47.240;-1.546;2023-07-16T03:58:42;6.00;;;1.70;;
77984;SDS011;67177;47.240;-1.546;2023-07-16T04:01:08;5.32;;;1.52;;
77984;SDS011;67177;47.240;-1.546;2023-07-16T04:03:34;7.00;;;1.80;;
77984;SDS011;67177;47.240;-1.546;2023-07-16T04:06:01;6.38;;;1.67;;
77984;SDS011;67177;47.240;-1.546;2023-07-16T04:08:31;5.63;;;1.60;;
77984;SDS011;67177;47.240;-1.546;2023-07-16T04:10:57;5.40;;;1.65;;
77984;SDS011;67177;47.240;-1.546;2023-07-16T04:13:23;5.88;;;1.83;;
77984;SDS011;67177;47.240;-1.546;2023-07-16T04:15:48;5.80;;;1.53;;
77984;SDS011;67177;47.240;-1.546;2023-07-16T04:18:14;4.97;;;1.40;;
77984;SDS011;67177;47.240;-1.546;2023-07-16T04:20:40;4.57;;;1.37;;
77984;SDS011;67177;47.240;-1.546;2023-07-16T04:23:05;7.05;;;1.80;;
77984;SDS011;67177;47.240;-1.546;2023-07-16T04:25:31;5.20;;;1.57;;
77984;SDS011;67177;47.240;-1.546;2023-07-16T04:27:57;5.78;;;1.40;;
77984;SDS011;67177;47.240;-1.546;2023-07-16T04:30:22;5.13;;;1.60;;
77984;SDS011;67177;47.240;-1.546;2023-07-16T04:32:48;5.32;;;1.58;;
77984;SDS011;67177;47.240;-1.546;2023-07-16T04:35:14;4.90;;;1.50;;
77984;SDS011;67177;47.240;-1.546;2023-07-16T04:37:40;5.53;;;1.60;;
77984;SDS011;67177;47.240;-1.546;2023-07-16T04:40:06;4.28;;;1.45;;
77984;SDS011;67177;47.240;-1.546;2023-07-16T04:42:32;5.07;;;1.60;;
77984;SDS011;67177;47.240;-1.546;2023-07-16T04:44:57;4.73;;;1.70;;
77984;SDS011;67177;47.240;-1.546;2023-07-16T04:47:23;5.20;;;1.40;;
77984;SDS011;67177;47.240;-1.546;2023-07-16T04:49:49;6.13;;;1.80;;
77984;SDS011;67177;47.240;-1.546;2023-07-16T04:52:14;5.73;;;1.90;;
77984;SDS011;67177;47.240;-1.546;2023-07-16T04:54:40;6.35;;;1.92;;
77984;SDS011;67177;47.240;-1.546;2023-07-16T04:57:06;6.80;;;2.23;;
77984;SDS011;67177;47.240;-1.546;2023-07-16T04:59:32;5.97;;;2.00;;
77984;SDS011;67177;47.240;-1.546;2023-07-16T05:01:58;6.35;;;2.03;;
77984;SDS011;67177;47.240;-1.546;2023-07-16T05:04:24;6.63;;;1.77;;
77984;SDS011;67177;47.240;-1.546;2023-07-16T05:06:50;6.18;;;2.13;;
77984;SDS011;67177;47.240;-1.546;2023-07-16T05:09:16;5.97;;;1.70;;
77984;SDS011;67177;47.240;-1.546;2023-07-16T05:11:42;5.90;;;1.58;;
77984;SDS011;67177;47.240;-1.546;2023-07-16T05:14:07;6.47;;;1.80;;
77984;SDS011;67177;47.240;-1.546;2023-07-16T05:16:33;6.88;;;1.80;;
77984;SDS011;67177;47.240;-1.546;2023-07-16T05:18:59;6.22;;;1.90;;
77984;SDS011;67177;47.240;-1.546;2023-07-16T05:21:24;6.33;;;2.17;;
77984;SDS011;67177;47.240;-1.546;2023-07-16T05:23:50;5.90;;;1.70;;
77984;SDS011;67177;47.240;-1.546;2023-07-16T05:26:16;5.93;;;2.03;;
77984;SDS011;67177;47.240;-1.546;2023-07-16T05:28:41;6.88;;;2.17;;
77984;SDS011;67177;47.240;-1.546;2023-07-16T05:31:07;6.20;;;1.90;;
77984;SDS011;67177;47.240;-1.546;2023-07-16T05:33:33;6.73;;;1.97;;
77984;SDS011;67177;47.240;-1.546;2023-07-16T05:35:58;7.20;;;2.10;;
77984;SDS011;67177;47.240;-1.546;2023-07-16T05:38:24;6.40;;;2.00;;
77984;SDS011;67177;47.240;-1.546;2023-07-16T05:40:49;7.88;;;2.10;;
77984;SDS011;67177;47.240;-1.546;2023-07-16T05:43:15;5.27;;;1.90;;
77984;SDS011;67177;47.240;-1.546;2023-07-16T05:45:41;5.47;;;1.80;;
77984;SDS011;67177;47.240;-1.546;2023-07-16T05:48:07;5.17;;;1.73;;
77984;SDS011;67177;47.240;-1.546;2023-07-16T05:50:32;6.80;;;1.92;;
77984;SDS011;67177;47.240;-1.546;2023-07-16T05:52:58;7.37;;;2.47;;
77984;SDS011;67177;47.240;-1.546;2023-07-16T05:55:24;5.40;;;2.00;;
77984;SDS011;67177;47.240;-1.546;2023-07-16T05:57:50;6.35;;;2.05;;
77984;SDS011;67177;47.240;-1.546;2023-07-16T06:00:16;5.28;;;1.73;;
77984;SDS011;67177;47.240;-1.546;2023-07-16T06:02:42;5.70;;;1.90;;
77984;SDS011;67177;47.240;-1.546;2023-07-16T06:05:08;6.10;;;1.95;;
77984;SDS011;67177;47.240;-1.546;2023-07-16T06:07:34;6.95;;;1.98;;
77984;SDS011;67177;47.240;-1.546;2023-07-16T06:09:59;5.30;;;2.00;;
77984;SDS011;67177;47.240;-1.546;2023-07-16T06:12:25;6.90;;;2.30;;
77984;SDS011;67177;47.240;-1.546;2023-07-16T06:14:51;6.50;;;2.30;;
77984;SDS011;67177;47.240;-1.546;2023-07-16T06:17:16;5.88;;;2.20;;
77984;SDS011;67177;47.240;-1.546;2023-07-16T06:19:42;7.80;;;2.80;;
77984;SDS011;67177;47.240;-1.546;2023-07-16T06:22:08;7.07;;;2.50;;
77984;SDS011;67177;47.240;-1.546;2023-07-16T06:24:34;6.47;;;2.50;;
77984;SDS011;67177;47.240;-1.546;2023-07-16T06:27:00;6.10;;;2.40;;
77984;SDS011;67177;47.240;-1.546;2023-07-16T06:29:25;5.20;;;2.40;;
77984;SDS011;67177;47.240;-1.546;2023-07-16T06:31:54;9.52;;;2.70;;
77984;SDS011;67177;47.240;-1.546;2023-07-16T06:34:21;6.60;;;2.67;;
77984;SDS011;67177;47.240;-1.546;2023-07-16T06:36:47;8.70;;;2.83;;
77984;SDS011;67177;47.240;-1.546;2023-07-16T06:39:13;7.70;;;2.70;;
77984;SDS011;67177;47.240;-1.546;2023-07-16T06:41:39;6.87;;;2.53;;
77984;SDS011;67177;47.240;-1.546;2023-07-16T06:44:04;6.47;;;2.60;;
77984;SDS011;67177;47.240;-1.546;2023-07-16T06:46:30;6.67;;;2.20;;
77984;SDS011;67177;47.240;-1.546;2023-07-16T06:48:56;6.53;;;2.43;;
77984;SDS011;67177;47.240;-1.546;2023-07-16T06:51:22;9.55;;;3.22;;
77984;SDS011;67177;47.240;-1.546;2023-07-16T06:53:47;6.95;;;2.95;;
77984;SDS011;67177;47.240;-1.546;2023-07-16T06:56:13;8.33;;;3.23;;
77984;SDS011;67177;47.240;-1.546;2023-07-16T06:58:39;9.55;;;3.15;;
77984;SDS011;67177;47.240;-1.546;2023-07-16T07:01:05;8.03;;;2.93;;
77984;SDS011;67177;47.240;-1.546;2023-07-16T07:03:30;7.63;;;3.03;;
77984;SDS011;67177;47.240;-1.546;2023-07-16T07:05:58;6.47;;;2.78;;
77984;SDS011;67177;47.240;-1.546;2023-07-16T07:08:27;7.13;;;2.80;;
77984;SDS011;67177;47.240;-1.546;2023-07-16T07:10:53;6.82;;;2.85;;
77984;SDS011;67177;47.240;-1.546;2023-07-16T07:13:18;7.30;;;2.73;;
77984;SDS011;67177;47.240;-1.546;2023-07-16T07:15:44;7.47;;;2.53;;
77984;SDS011;67177;47.240;-1.546;2023-07-16T07:18:10;7.53;;;2.60;;
77984;SDS011;67177;47.240;-1.546;2023-07-16T07:20:35;6.43;;;2.63;;
77984;SDS011;67177;47.240;-1.546;2023-07-16T07:23:01;8.05;;;3.00;;
77984;SDS011;67177;47.240;-1.546;2023-07-16T07:25:28;7.82;;;2.85;;
77984;SDS011;67177;47.240;-1.546;2023-07-16T07:27:54;8.60;;;3.47;;
77984;SDS011;67177;47.240;-1.546;2023-07-16T07:30:19;8.27;;;3.63;;
77984;SDS011;67177;47.240;-1.546;2023-07-16T07:32:45;8.73;;;3.37;;
77984;SDS011;67177;47.240;-1.546;2023-07-16T07:35:11;7.70;;;3.20;;
77984;SDS011;67177;47.240;-1.546;2023-07-16T07:37:36;8.80;;;3.50;;
77984;SDS011;67177;47.240;-1.546;2023-07-16T07:40:02;7.72;;;3.38;;
77984;SDS011;67177;47.240;-1.546;2023-07-16T07:42:28;7.15;;;3.03;;
77984;SDS011;67177;47.240;-1.546;2023-07-16T07:44:54;7.47;;;3.15;;
77984;SDS011;67177;47.240;-1.546;2023-07-16T07:47:20;6.57;;;2.90;;
77984;SDS011;67177;47.240;-1.546;2023-07-16T07:49:46;8.10;;;3.03;;
77984;SDS011;67177;47.240;-1.546;2023-07-16T07:52:12;7.88;;;3.20;;
77984;SDS011;67177;47.240;-1.546;2023-07-16T07:54:37;10.17;;;3.47;;
77984;SDS011;67177;47.240;-1.546;2023-07-16T07:57:03;8.30;;;3.47;;
77984;SDS011;67177;47.240;-1.546;2023-07-16T07:59:30;10.63;;;4.00;;
77984;SDS011;67177;47.240;-1.546;2023-07-16T08:01:56;8.07;;;3.37;;
77984;SDS011;67177;47.240;-1.546;2023-07-16T08:04:22;8.95;;;3.33;;
77984;SDS011;67177;47.240;-1.546;2023-07-16T08:06:50;8.18;;;2.97;;
77984;SDS011;67177;47.240;-1.546;2023-07-16T08:09:18;8.07;;;2.70;;
77984;SDS011;67177;47.240;-1.546;2023-07-16T08:11:43;7.03;;;2.87;;
77984;SDS011;67177;47.240;-1.546;2023-07-16T08:14:09;6.70;;;2.72;;
77984;SDS011;67177;47.240;-1.546;2023-07-16T08:16:35;7.30;;;2.83;;
77984;SDS011;67177;47.240;-1.546;2023-07-16T08:19:00;9.53;;;3.37;;
77984;SDS011;67177;47.240;-1.546;2023-07-16T08:21:26;8.57;;;2.90;;
77984;SDS011;67177;47.240;-1.546;2023-07-16T08:23:51;8.30;;;2.83;;
77984;SDS011;67177;47.240;-1.546;2023-07-16T08:26:17;8.00;;;2.30;;
77984;SDS011;67177;47.240;-1.546;2023-07-16T08:28:43;7.80;;;2.72;;
77984;SDS011;67177;47.240;-1.546;2023-07-16T08:31:12;8.38;;;2.45;;
77984;SDS011;67177;47.240;-1.546;2023-07-16T08:33:38;6.90;;;2.25;;
77984;SDS011;67177;47.240;-1.546;2023-07-16T08:36:04;7.63;;;2.10;;
77984;SDS011;67177;47.240;-1.546;2023-07-16T08:38:30;6.88;;;2.10;;
77984;SDS011;67177;47.240;-1.546;2023-07-16T08:40:55;6.77;;;2.03;;
77984;SDS011;67177;47.240;-1.546;2023-07-16T08:43:21;6.97;;;2.17;;
77984;SDS011;67177;47.240;-1.546;2023-07-16T08:45:48;7.13;;;2.03;;
77984;SDS011;67177;47.240;-1.546;2023-07-16T08:48:15;9.02;;;2.35;;
77984;SDS011;67177;47.240;-1.546;2023-07-16T08:50:46;7.87;;;2.50;;
77984;SDS011;67177;47.240;-1.546;2023-07-16T08:53:13;7.15;;;2.50;;
77984;SDS011;67177;47.240;-1.546;2023-07-16T08:55:41;6.22;;;1.90;;
77984;SDS011;67177;47.240;-1.546;2023-07-16T08:58:09;6.10;;;1.95;;
77984;SDS011;67177;47.240;-1.546;2023-07-16T09:00:36;7.07;;;2.42;;
77984;SDS011;67177;47.240;-1.546;2023-07-16T09:03:02;5.90;;;2.10;;
77984;SDS011;67177;47.240;-1.546;2023-07-16T09:05:29;6.88;;;1.85;;
77984;SDS011;67177;47.240;-1.546;2023-07-16T09:07:55;5.53;;;2.05;;
77984;SDS011;67177;47.240;-1.546;2023-07-16T09:10:20;6.63;;;1.90;;
77984;SDS011;67177;47.240;-1.546;2023-07-16T09:12:46;8.88;;;2.15;;
77984;SDS011;67177;47.240;-1.546;2023-07-16T09:15:16;6.93;;;1.90;;
77984;SDS011;67177;47.240;-1.546;2023-07-16T09:17:46;6.40;;;1.95;;
77984;SDS011;67177;47.240;-1.546;2023-07-16T09:20:16;6.97;;;2.13;;
77984;SDS011;67177;47.240;-1.546;2023-07-16T09:22:42;6.38;;;1.60;;
77984;SDS011;67177;47.240;-1.546;2023-07-16T09:25:08;5.65;;;1.63;;
77984;SDS011;67177;47.240;-1.546;2023-07-16T09:27:34;4.97;;;1.67;;
77984;SDS011;67177;47.240;-1.546;2023-07-16T09:30:00;8.82;;;2.30;;
77984;SDS011;67177;47.240;-1.546;2023-07-16T09:32:39;10.55;;;2.45;;
77984;SDS011;67177;47.240;-1.546;2023-07-16T09:35:12;7.40;;;2.40;;
77984;SDS011;67177;47.240;-1.546;2023-07-16T09:37:41;8.50;;;2.10;;
77984;SDS011;67177;47.240;-1.546;2023-07-16T09:40:08;7.05;;;2.00;;
77984;SDS011;67177;47.240;-1.546;2023-07-16T09:42:42;5.60;;;1.52;;
77984;SDS011;67177;47.240;-1.546;2023-07-16T09:45:12;4.70;;;1.67;;
77984;SDS011;67177;47.240;-1.546;2023-07-16T09:47:47;6.40;;;1.47;;
77984;SDS011;67177;47.240;-1.546;2023-07-16T09:50:12;5.25;;;1.60;;
77984;SDS011;67177;47.240;-1.546;2023-07-16T09:52:38;4.57;;;1.60;;
77984;SDS011;67177;47.240;-1.546;2023-07-16T09:55:05;5.80;;;1.70;;
77984;SDS011;67177;47.240;-1.546;2023-07-16T09:57:38;6.60;;;1.85;;
77984;SDS011;67177;47.240;-1.546;2023-07-16T10:00:06;5.53;;;1.90;;
77984;SDS011;67177;47.240;-1.546;2023-07-16T10:02:37;6.78;;;1.90;;
77984;SDS011;67177;47.240;-1.546;2023-07-16T10:05:16;6.37;;;1.70;;
77984;SDS011;67177;47.240;-1.546;2023-07-16T10:08:18;4.63;;;1.67;;
77984;SDS011;67177;47.240;-1.546;2023-07-16T10:13:11;7.32;;;2.25;;
77984;SDS011;67177;47.240;-1.546;2023-07-16T10:15:38;6.63;;;2.03;;
77984;SDS011;67177;47.240;-1.546;2023-07-16T10:18:22;5.83;;;1.73;;
77984;SDS011;67177;47.240;-1.546;2023-07-16T10:21:03;6.25;;;1.90;;
77984;SDS011;67177;47.240;-1.546;2023-07-16T10:23:42;5.25;;;1.70;;
77984;SDS011;67177;47.240;-1.546;2023-07-16T10:26:10;6.75;;;1.85;;
77984;SDS011;67177;47.240;-1.546;2023-07-16T10:28:37;6.10;;;1.65;;
77984;SDS011;67177;47.240;-1.546;2023-07-16T10:31:03;4.60;;;1.40;;
77984;SDS011;67177;47.240;-1.546;2023-07-16T10:33:32;14.93;;;8.00;;
77984;SDS011;67177;47.240;-1.546;2023-07-16T10:35:59;12.50;;;7.10;;
77984;SDS011;67177;47.240;-1.546;2023-07-16T10:38:25;30.30;;;16.10;;
77984;SDS011;67177;47.240;-1.546;2023-07-16T10:40:50;17.60;;;9.37;;
77984;SDS011;67177;47.240;-1.546;2023-07-16T10:43:16;13.73;;;6.53;;
77984;SDS011;67177;47.240;-1.546;2023-07-16T10:45:42;8.03;;;3.93;;
77984;SDS011;67177;47.240;-1.546;2023-07-16T10:48:10;8.10;;;2.88;;
77984;SDS011;67177;47.240;-1.546;2023-07-16T10:50:36;6.72;;;2.25;;
77984;SDS011;67177;47.240;-1.546;2023-07-16T10:53:01;4.83;;;1.80;;
77984;SDS011;67177;47.240;-1.546;2023-07-16T10:55:28;6.25;;;1.90;;
77984;SDS011;67177;47.240;-1.546;2023-07-16T10:57:55;5.30;;;1.60;;
77984;SDS011;67177;47.240;-1.546;2023-07-16T11:00:21;4.60;;;1.63;;
